Flight Track Log - Related Links

Times and Time Zones

All times are in EDT time to prevent confusion due to time zone crossing. See the SWA3206 flight status page for this flight to view local times or setup timezone preferences in your user account.

Time Position Orientation Groundspeed Altitude Reporting Facility
EDT Latitude Longitude Course Direction KTS MPH feet Rate Location/Type
Mon 11:45:55 AM 39.8833 -75.2167 72° East 149 171 900  Level Philadelphia TRACON
Mon 11:46:55 AM 39.9000 -75.1500 72° East 233 268 2,400 1,950 Climbing Philadelphia TRACON
Mon 11:47:55 AM 39.9500 -75.0833 46° Northeast 268 308 4,800 2,850 Climbing Philadelphia TRACON
Mon 11:48:55 AM 40.0167 -75.1000 349° North 295 339 8,100 2,457 Climbing Philadelphia TRACON
Mon 11:50:02 AM 40.0667 -75.1833 308° West 300 345 10,000 909 Climbing Philadelphia TRACON
Mon 11:51:07 AM 40.1167 -75.3167 296° West 347 399 10,100 1,000 Climbing Philadelphia TRACON
Mon 11:51:44 AM 40.1500 -75.3667 311° West 345 397 11,700 1,200 Climbing Philadelphia TRACON
Mon 11:52:42 AM 40.1828 -75.4656 293° West 368 423 12,000 1,241 Climbing New York Center
Mon 11:53:40 AM 40.2406 -75.5839 303° West 363 418 14,100 2,471 Climbing New York Center
Mon 11:54:41 AM 40.3069 -75.6864 310° West 363 418 16,900 1,438 Climbing New York Center
Mon 11:55:41 AM 40.3736 -75.7892 310° West 368 423 17,000 397 Climbing New York Center
Mon 11:56:42 AM 40.4322 -75.8836 309° West 373 429 17,700 1,500 Climbing New York Center
Mon 11:57:41 AM 40.4597 -76.0164 285° West 373 429 20,000 2,430 Climbing New York Center
Mon 11:58:43 AM 40.4806 -76.1544 281° West 379 436 22,600 2,571 Climbing New York Center
Mon 11:59:40 AM 40.5031 -76.2983 282° West 389 448 25,100 2,359 Climbing New York Center
Mon 12:00:40 PM 40.5275 -76.4422 283° West 400 460 27,200 2,050 Climbing New York Center
Mon 12:01:40 PM 40.5494 -76.5889 281° West 400 460 29,200 2,262 Climbing New York Center
Mon 12:02:42 PM 40.5717 -76.7328 282° West 405 466 31,800 1,869 Climbing New York Center
Mon 12:03:42 PM 40.5892 -76.8764 279° West 405 466 33,000 1,050 Climbing New York Center
Mon 12:04:42 PM 40.6131 -77.0208 282° West 405 466 33,900 1,100 Climbing New York Center
Mon 12:05:42 PM 40.6322 -77.1647 280° West 405 466 35,200 1,059 Climbing New York Center
Mon 12:06:41 PM 40.6536 -77.3092 281° West 405 466 36,000 403 Climbing New York Center
Mon 12:07:41 PM 40.6747 -77.4561 281° West 405 466 36,000  Level New York Center
Mon 12:09:21 PM 40.7086 -77.7178 280° West 409 471 36,000  Level Cleveland Center
Mon 12:10:22 PM 40.7292 -77.8678 280° West 409 471 36,000  Level Cleveland Center
Mon 12:11:21 PM 40.7492 -78.0122 280° West 409 471 36,000  Level Cleveland Center
Mon 12:12:22 PM 40.7669 -78.1594 279° West 409 471 36,000  Level Cleveland Center
Mon 12:13:22 PM 40.7867 -78.3069 280° West 409 471 36,000  Level Cleveland Center
Mon 12:14:22 PM 40.8061 -78.4544 280° West 409 471 36,000  Level Cleveland Center
Mon 12:15:22 PM 40.8256 -78.6019 280° West 409 471 36,000  Level Cleveland Center
Mon 12:16:22 PM 40.8425 -78.7497 279° West 409 471 36,000  Level Cleveland Center
Mon 12:17:22 PM 40.8633 -78.8781 282° West 404 465 36,000  Level Cleveland Center
Mon 12:18:21 PM 40.8822 -79.0258 280° West 409 471 36,000  Level Cleveland Center
Mon 12:19:22 PM 40.8986 -79.1711 279° West 409 471 36,000  Level Cleveland Center
Mon 12:20:21 PM 40.9169 -79.3219 279° West 409 471 36,000  Level Cleveland Center
Mon 12:21:22 PM 40.9353 -79.4756 279° West 409 471 36,000  Level Cleveland Center
Mon 12:22:22 PM 40.9533 -79.6236 279° West 414 476 36,000  Level Cleveland Center
Mon 12:23:22 PM 40.9692 -79.7747 278° West 414 476 36,000  Level Cleveland Center
Mon 12:24:22 PM 40.9886 -79.9203 280° West 414 476 36,000  Level Cleveland Center
Mon 12:25:22 PM 41.0061 -80.0742 279° West 414 476 36,000  Level Cleveland Center
Mon 12:26:22 PM 41.0233 -80.2225 279° West 414 476 36,000  Level Cleveland Center
Mon 12:27:22 PM 41.0383 -80.3711 278° West 414 476 36,000  Level Cleveland Center
Mon 12:28:22 PM 41.0553 -80.5253 278° West 414 476 36,000  Level Cleveland Center
Mon 12:29:22 PM 41.0739 -80.6767 279° West 419 482 36,000  Level Cleveland Center
Mon 12:30:22 PM 41.0883 -80.8311 277° West 419 482 36,000  Level Cleveland Center
Mon 12:31:22 PM 41.1067 -80.9828 279° West 424 488 36,000  Level Cleveland Center
Mon 12:32:22 PM 41.1206 -81.1536 276° West 429 494 36,000  Level Cleveland Center
Mon 12:33:21 PM 41.1364 -81.3056 278° West 423 487 36,000  Level Cleveland Center
Mon 12:34:22 PM 41.1542 -81.4381 280° West 423 487 36,000  Level Cleveland Center
Mon 12:35:22 PM 41.1697 -81.5872 278° West 418 481 36,000  Level Cleveland Center
Mon 12:36:22 PM 41.1828 -81.7336 277° West 412 474 36,000  Level Cleveland Center
Mon 12:37:22 PM 41.1981 -81.8800 278° West 407 468 36,000  Level Cleveland Center
Mon 12:38:22 PM 41.2128 -82.0267 278° West 407 468 36,000  Level Cleveland Center
Mon 12:39:22 PM 41.2233 -82.1789 275° West 412 474 36,000  Level Cleveland Center
Mon 12:40:22 PM 41.2378 -82.3283 277° West 412 474 36,000  Level Cleveland Center
Mon 12:41:22 PM 41.2519 -82.4889 277° West 405 466 36,000  Level Cleveland Center
Mon 12:42:22 PM 41.2642 -82.6356 276° West 405 466 36,000  Level Cleveland Center
Mon 12:43:22 PM 41.2781 -82.7825 277° West 405 466 36,000  Level Cleveland Center
Mon 12:44:22 PM 41.2917 -82.9322 277° West 405 466 36,000  Level Cleveland Center
Mon 12:45:22 PM 41.3033 -83.0764 276° West 400 460 36,000  Level Cleveland Center
Mon 12:46:22 PM 41.3144 -83.2206 276° West 400 460 36,000  Level Cleveland Center
Mon 12:47:22 PM 41.3278 -83.3650 277° West 395 455 36,000  Level Cleveland Center
Mon 12:48:22 PM 41.3408 -83.5119 277° West 395 455 36,000 -350 Level Cleveland Center
Mon 12:49:22 PM 41.3536 -83.6567 277° West 400 460 35,300 -800 Descending Cleveland Center
Mon 12:50:22 PM 41.3642 -83.8036 276° West 400 460 34,400 -960 Descending Cleveland Center
Mon 12:52:17 PM 41.3889 -84.0867 277° West 408 470 32,500 -949 Descending Chicago Center
Mon 12:53:19 PM 41.4019 -84.2386 277° West 413 475 31,600 -919 Descending Chicago Center
Mon 12:54:21 PM 41.4131 -84.3933 276° West 419 482 30,600 -774 Descending Chicago Center
Mon 12:55:23 PM 41.4253 -84.5453 276° West 415 478 30,000 -290 Descending Chicago Center
Mon 12:56:25 PM 41.4356 -84.6911 275° West 400 460 30,000  Level Chicago Center
Mon 12:57:27 PM 41.4458 -84.8358 275° West 394 453 30,000 -339 Level Chicago Center
Mon 12:58:29 PM 41.4583 -85.0194 275° West 414 476 29,300 -774 Descending Chicago Center
Mon 12:59:31 PM 41.4697 -85.1819 275° West 434 499 28,400 -919 Descending Chicago Center
Mon 01:00:33 PM 41.4803 -85.3472 275° West 439 505 27,400 -1,016 Descending Chicago Center
Mon 01:01:35 PM 41.4911 -85.5117 275° West 436 502 26,300 -1,548 Descending Chicago Center
Mon 01:02:37 PM 41.5017 -85.6678 275° West 420 483 24,200 -2,323 Descending Chicago Center
Mon 01:03:39 PM 41.5117 -85.8181 275° West 403 464 21,500 -2,661 Descending Chicago Center
Mon 01:04:41 PM 41.5206 -85.9647 275° West 403 464 18,700 -2,683 Descending Chicago Center
Mon 01:05:42 PM 41.5258 -86.1036 273° West 383 441 16,000 -2,439 Descending Chicago Center
Mon 01:06:44 PM 41.5233 -86.2344 269° West 362 417 13,700 -2,371 Descending Chicago Center
Mon 01:07:46 PM 41.5228 -86.3858 270° West 345 397 11,100 -1,452 Descending Chicago Center
Mon 01:08:48 PM 41.5222 -86.4992 270° West 306 352 10,700 -532 Descending Chicago Center
Mon 01:09:50 PM 41.4872 -86.5917 243° Southwest 286 329 10,000 -339 Descending Chicago Center
Mon 01:10:52 PM 41.4417 -86.6761 234° Southwest 282 325 10,000  Level Chicago Center
Mon 01:11:54 PM 41.4361 -86.7683 265° West 281 323 10,000  Level Chicago Center
Mon 01:12:57 PM 41.4583 -86.8864 284° West 277 319 10,000 -432 Level Chicago Center
Mon 01:13:59 PM 41.4781 -86.9742 287° West 258 297 9,100 -1,113 Descending Chicago Center
Mon 01:15:01 PM 41.4950 -87.0556 286° West 237 273 7,700 -1,346 Descending Chicago Center
Mon 01:15:46 PM 41.5167 -87.1333 290° West 232 267 6,700 -971 Descending Chicago TRACON
Mon 01:16:46 PM 41.5167 -87.2167 270° West 228 262 6,000 -350 Descending Chicago TRACON
Mon 01:17:46 PM 41.5167 -87.3000 270° West 226 260 6,000  Level Chicago TRACON
Mon 01:18:40 PM 41.5333 -87.3667 288° West 229 264 6,000  Level Chicago TRACON
Mon 01:19:09 PM 41.5417 -87.4019 288° West 230 265 6,000 -462 Level Chicago Center
Mon 01:20:11 PM 41.5842 -87.4644 312° West 231 266 5,300 -484 Descending Chicago Center
Mon 01:21:13 PM 41.6206 -87.5211 311° West 218 251 5,000 -387 Descending Chicago Center
Mon 01:22:15 PM 41.6536 -87.5683 313° West 197 227 4,500 -871 Descending Chicago Center
Mon 01:23:17 PM 41.6936 -87.6244 314° West 183 211 3,200 -1,174 Descending Chicago Center
Mon 01:23:47 PM 41.7167 -87.6500 320° Northwest 174 200 2,700 -933 Descending Chicago TRACON
Mon 01:24:47 PM 41.7500 -87.6667 340° North 181 208 1,800 -500 Descending Chicago TRACON
Mon 01:25:47 PM 41.8000 -87.6833 346° North 167 192 1,700 -263 Descending Chicago TRACON
Mon 01:26:41 PM 41.8167 -87.7167 304° West 152 175 1,300 -444 Descending Chicago TRACON

Login

Don't have an account? Register now (free) for customized features, flight alerts, and more!